Time;durP1;ratioP1;P1;durP2;ratioP2;P2;SDS_P1;SDS_P2;PMS_P1;PMS_P2;Temp;Humidity;BMP_temperature;BMP_pressure;BME280_temperature;BME280_humidity;BME280_pressure;Samples;Min_cycle;Max_cycle;Signal;HPM_P1;HPM_P2
2021/12/07 00:00:42;;;;;;;0.32;0.32;;;3.10;99.90;;;;;;4917376;29;20027;-76
2021/12/07 00:03:08;;;;;;;0.10;0.10;;;3.20;99.90;;;;;;4913119;29;20068;-76
2021/12/07 00:05:33;;;;;;;0.10;0.10;;;3.30;99.90;;;;;;4925485;29;20059;-77
2021/12/07 00:07:59;;;;;;;0.10;0.10;;;3.30;99.90;;;;;;4922997;29;20490;-76
2021/12/07 00:10:25;;;;;;;0.10;0.10;;;3.30;99.90;;;;;;4913174;29;20033;-76
2021/12/07 00:12:51;;;;;;;0.10;0.10;;;3.30;99.90;;;;;;4913213;29;20084;-76
2021/12/07 00:15:22;;;;;;;0.10;0.10;;;3.40;99.90;;;;;;4929382;29;20032;-77
2021/12/07 00:17:48;;;;;;;0.10;0.10;;;3.30;99.90;;;;;;4920661;29;20050;-77
2021/12/07 00:20:18;;;;;;;0.10;0.10;;;3.30;99.90;;;;;;4931547;29;20525;-76
2021/12/07 00:22:47;;;;;;;0.10;0.10;;;3.40;99.90;;;;;;4926058;29;20494;-77
2021/12/07 00:25:14;;;;;;;6.68;2.83;;;3.40;99.90;;;;;;4916582;29;20020;-77
2021/12/07 00:27:39;;;;;;;0.10;0.10;;;3.40;99.90;;;;;;4916297;29;20028;-76
2021/12/07 00:30:07;;;;;;;0.10;0.10;;;3.50;99.90;;;;;;4924978;29;20564;-76
2021/12/07 00:32:39;;;;;;;0.10;0.10;;;3.40;99.90;;;;;;4934035;29;20020;-75
2021/12/07 00:37:55;;;;;;;0.10;0.10;;;3.40;99.90;;;;;;4929089;29;20032;-76
2021/12/07 00:40:22;;;;;;;0.10;0.10;;;3.40;99.90;;;;;;4916383;29;20167;-75
2021/12/07 00:42:48;;;;;;;0.20;0.20;;;3.40;99.90;;;;;;4935857;29;20027;-76
2021/12/07 00:45:18;;;;;;;0.10;0.10;;;3.40;99.90;;;;;;4934978;29;20032;-75
2021/12/07 00:47:44;;;;;;;0.10;0.10;;;3.40;99.90;;;;;;4938064;29;20068;-76
2021/12/07 00:50:10;;;;;;;0.10;0.10;;;3.30;99.90;;;;;;4937624;29;20518;-75
2021/12/07 00:52:36;;;;;;;0.77;0.77;;;3.30;99.90;;;;;;4934761;29;20056;-76
2021/12/07 00:55:08;;;;;;;0.10;0.10;;;3.20;99.90;;;;;;4935292;29;20055;-76
2021/12/07 00:57:35;;;;;;;0.10;0.10;;;3.20;99.90;;;;;;4934464;29;20474;-76
2021/12/07 01:00:01;;;;;;;0.10;0.10;;;3.10;99.90;;;;;;4924582;29;20035;-76
2021/12/07 01:02:26;;;;;;;0.10;0.10;;;3.00;99.90;;;;;;4934027;29;20411;-76
2021/12/07 01:04:57;;;;;;;0.10;0.10;;;2.90;99.90;;;;;;4934716;29;20027;-76
2021/12/07 01:26:50;;;;;;;0.10;0.10;;;2.70;99.90;;;;;;4924318;29;20045;-75
2021/12/07 01:29:20;;;;;;;0.10;0.10;;;2.70;99.90;;;;;;4933917;29;20031;-77
2021/12/07 01:34:46;;;;;;;0.28;0.28;;;2.70;99.90;;;;;;4914996;29;20039;-76
2021/12/07 01:47:47;;;;;;;0.10;0.10;;;2.60;99.90;;;;;;4933887;29;20043;-77
2021/12/07 01:59:32;;;;;;;0.20;0.20;;;2.80;99.90;;;;;;4941649;28;20035;-76
2021/12/07 02:00:44;;;;;;;0.10;0.10;;;2.80;99.90;;;;;;4928207;29;20033;-76
2021/12/07 02:03:10;;;;;;;0.10;0.10;;;3.00;99.90;;;;;;4914758;29;20059;-75
2021/12/07 02:05:36;;;;;;;0.10;0.10;;;2.90;99.90;;;;;;4914231;29;20051;-76
2021/12/07 02:08:02;;;;;;;0.10;0.10;;;2.90;99.90;;;;;;4914290;29;20036;-76
2021/12/07 02:10:30;;;;;;;0.10;0.10;;;2.90;99.90;;;;;;4914222;29;20020;-76
2021/12/07 02:13:02;;;;;;;0.10;0.10;;;2.90;99.90;;;;;;4926454;29;20027;-75
2021/12/07 02:15:29;;;;;;;0.10;0.10;;;2.90;99.90;;;;;;4927922;29;20070;-76
2021/12/07 02:17:55;;;;;;;0.10;0.10;;;2.80;99.90;;;;;;4929575;29;20093;-77
2021/12/07 02:20:24;;;;;;;0.10;0.10;;;2.80;99.90;;;;;;4932597;29;20490;-76
2021/12/07 02:22:49;;;;;;;0.50;0.50;;;2.80;99.90;;;;;;4929809;29;20114;-76
2021/12/07 02:25:16;;;;;;;0.10;0.10;;;2.80;99.90;;;;;;4933506;29;20521;-75
2021/12/07 02:27:43;;;;;;;0.10;0.10;;;2.80;99.90;;;;;;4927834;29;20040;-75
2021/12/07 02:30:12;;;;;;;0.10;0.10;;;2.80;99.90;;;;;;4918950;29;20032;-76
2021/12/07 02:32:38;;;;;;;0.10;0.10;;;2.90;99.90;;;;;;4933313;29;20744;-76
2021/12/07 02:35:05;;;;;;;0.10;0.10;;;2.90;99.90;;;;;;4926029;29;20032;-77
2021/12/07 02:37:33;;;;;;;0.10;0.10;;;2.90;99.90;;;;;;4913866;29;20479;-77
2021/12/07 02:40:00;;;;;;;0.10;0.10;;;2.90;99.90;;;;;;4913702;29;20047;-76
2021/12/07 02:42:27;;;;;;;0.10;0.10;;;3.10;99.90;;;;;;4913829;29;20020;-76
2021/12/07 02:44:53;;;;;;;0.10;0.10;;;3.10;99.90;;;;;;4927877;29;20039;-75
2021/12/07 02:47:20;;;;;;;0.10;0.10;;;3.10;99.90;;;;;;4932292;29;20035;-75
2021/12/07 02:49:46;;;;;;;0.10;0.10;;;3.10;99.90;;;;;;4931852;29;20405;-76
2021/12/07 02:52:13;;;;;;;0.10;0.10;;;3.10;99.90;;;;;;4916020;29;20493;-76
2021/12/07 02:54:45;;;;;;;0.10;0.10;;;3.10;99.90;;;;;;4928935;29;20114;-75
2021/12/07 02:57:12;;;;;;;0.10;0.10;;;3.10;99.90;;;;;;4931442;29;20558;-75
2021/12/07 02:59:50;;;;;;;0.10;0.10;;;3.20;99.90;;;;;;4932157;29;20046;-75
2021/12/07 03:02:18;;;;;;;0.10;0.10;;;3.10;99.90;;;;;;4915039;29;20089;-76
2021/12/07 03:04:58;;;;;;;0.10;0.10;;;3.10;99.90;;;;;;4913683;29;20031;-76
2021/12/07 03:07:45;;;;;;;0.10;0.10;;;3.10;99.90;;;;;;4919030;29;20020;-76
2021/12/07 03:26:24;;;;;;;0.10;0.10;;;3.10;99.90;;;;;;4916179;29;21959;-76
2021/12/07 03:28:52;;;;;;;0.10;0.10;;;3.10;99.90;;;;;;4924316;29;20047;-76
2021/12/07 03:31:19;;;;;;;0.10;0.10;;;3.10;99.90;;;;;;4932008;29;20031;-76
2021/12/07 03:33:45;;;;;;;0.10;0.10;;;3.10;99.90;;;;;;4932222;29;20060;-76
2021/12/07 03:36:12;;;;;;;0.10;0.10;;;3.10;99.90;;;;;;4916439;29;20032;-76
2021/12/07 03:38:39;;;;;;;0.10;0.10;;;3.10;99.90;;;;;;4913211;29;20062;-76
2021/12/07 03:41:06;;;;;;;0.10;0.10;;;3.00;99.90;;;;;;4913150;29;20035;-76
2021/12/07 03:43:32;;;;;;;0.73;0.73;;;3.00;99.90;;;;;;4916932;29;20024;-76
2021/12/07 03:45:58;;;;;;;0.10;0.10;;;3.00;99.90;;;;;;4931544;29;20497;-76
2021/12/07 03:48:25;;;;;;;0.10;0.10;;;3.10;99.90;;;;;;4932083;29;20020;-76
2021/12/07 03:50:50;;;;;;;0.10;0.10;;;3.00;99.90;;;;;;4928820;29;20031;-76
2021/12/07 03:53:16;;;;;;;0.10;0.10;;;2.90;99.90;;;;;;4931468;29;20104;-76
2021/12/07 03:55:42;;;;;;;0.10;0.10;;;2.90;99.90;;;;;;4932222;29;20046;-76
2021/12/07 03:58:09;;;;;;;0.10;0.10;;;2.90;99.90;;;;;;4933712;29;20032;-75
2021/12/07 04:00:39;;;;;;;0.10;0.10;;;3.00;99.90;;;;;;4919419;29;20024;-76
2021/12/07 04:03:08;;;;;;;0.10;0.10;;;3.10;99.90;;;;;;4935367;29;20016;-76
2021/12/07 04:05:44;;;;;;;0.10;0.10;;;3.20;99.90;;;;;;4941437;29;20221;-76
2021/12/07 04:08:11;;;;;;;0.10;0.10;;;3.30;99.90;;;;;;4932532;29;20126;-76
2021/12/07 04:10:36;;;;;;;0.10;0.10;;;3.20;99.90;;;;;;4916182;29;20072;-76
2021/12/07 04:13:02;;;;;;;0.10;0.10;;;3.20;99.90;;;;;;4919445;29;20138;-77
2021/12/07 04:15:28;;;;;;;0.10;0.10;;;3.30;99.90;;;;;;4934645;29;20486;-77
2021/12/07 04:17:54;;;;;;;0.10;0.10;;;3.30;99.90;;;;;;4934531;29;20023;-76
2021/12/07 04:20:20;;;;;;;0.10;0.10;;;3.30;99.90;;;;;;4938798;29;20031;-76
2021/12/07 04:22:46;;;;;;;0.30;0.30;;;3.30;99.90;;;;;;4954348;29;20027;-75
2021/12/07 04:25:14;;;;;;;0.10;0.10;;;3.40;99.90;;;;;;4931764;29;20073;-76
2021/12/07 04:27:40;;;;;;;0.10;0.10;;;3.40;99.90;;;;;;4916058;29;20181;-76
2021/12/07 04:30:17;;;;;;;0.10;0.10;;;3.40;99.90;;;;;;4926472;29;20039;-76
2021/12/07 04:32:43;;;;;;;0.10;0.10;;;3.40;99.90;;;;;;4926997;29;20525;-77
2021/12/07 04:35:10;;;;;;;0.10;0.10;;;3.50;99.90;;;;;;4916284;29;20036;-76
2021/12/07 04:37:37;;;;;;;0.10;0.10;;;3.50;99.90;;;;;;4922636;29;20028;-76
2021/12/07 04:40:04;;;;;;;1.95;1.85;;;3.50;99.90;;;;;;4923932;29;20032;-76
2021/12/07 04:42:30;;;;;;;0.10;0.10;;;3.50;99.90;;;;;;4915526;29;20032;-76
2021/12/07 04:45:00;;;;;;;0.10;0.10;;;3.60;99.90;;;;;;4934386;29;20117;-76
2021/12/07 04:48:01;;;;;;;0.10;0.10;;;3.70;99.90;;;;;;4934013;29;20182;-76
2021/12/07 04:58:24;;;;;;;0.10;0.10;;;3.70;99.90;;;;;;4915698;29;20062;-76
2021/12/07 05:00:50;;;;;;;0.10;0.10;;;3.70;99.90;;;;;;4936038;29;20667;-77
2021/12/07 05:03:16;;;;;;;0.10;0.10;;;3.70;99.90;;;;;;4934030;29;20031;-76
2021/12/07 05:05:47;;;;;;;0.10;0.10;;;3.60;99.90;;;;;;4934492;29;20028;-76
2021/12/07 05:08:16;;;;;;;0.10;0.10;;;3.60;99.90;;;;;;4933273;29;20099;-76
2021/12/07 05:16:01;;;;;;;0.10;0.10;;;3.20;99.90;;;;;;4922714;29;20501;-76
2021/12/07 05:37:45;;;;;;;0.10;0.10;;;3.00;99.90;;;;;;4915075;29;20114;-76
2021/12/07 05:40:17;;;;;;;0.10;0.10;;;3.10;99.90;;;;;;4914194;29;20024;-76
2021/12/07 05:42:43;;;;;;;0.10;0.10;;;3.10;99.90;;;;;;4919528;29;20024;-76
2021/12/07 05:45:16;;;;;;;0.10;0.10;;;3.20;99.90;;;;;;4933080;29;20793;-77
2021/12/07 05:47:42;;;;;;;0.10;0.10;;;3.20;99.90;;;;;;4947729;28;20028;-77
2021/12/07 05:50:10;;;;;;;0.10;0.10;;;3.20;99.90;;;;;;4931187;29;20054;-76
2021/12/07 05:52:36;;;;;;;0.10;0.10;;;3.10;99.90;;;;;;4914418;29;20028;-77
2021/12/07 05:55:03;;;;;;;0.10;0.10;;;3.20;99.90;;;;;;4914456;29;20027;-76
2021/12/07 05:57:29;;;;;;;0.10;0.10;;;3.20;99.90;;;;;;4923563;29;20031;-77
2021/12/07 05:59:54;;;;;;;0.10;0.10;;;3.30;99.90;;;;;;4930815;29;20043;-77
2021/12/07 06:02:20;;;;;;;0.10;0.10;;;3.40;99.90;;;;;;4932699;29;20089;-77
2021/12/07 06:04:46;;;;;;;0.10;0.10;;;3.50;99.90;;;;;;4933400;29;20501;-77
2021/12/07 06:07:12;;;;;;;0.10;0.10;;;3.50;99.90;;;;;;4920171;29;20466;-76
2021/12/07 06:09:38;;;;;;;0.10;0.10;;;3.50;99.90;;;;;;4914248;29;20051;-77
2021/12/07 06:12:04;;;;;;;0.10;0.10;;;3.50;99.90;;;;;;4918939;29;20485;-77
2021/12/07 06:14:34;;;;;;;0.10;0.10;;;3.50;99.90;;;;;;4933149;29;20035;-76
2021/12/07 06:17:00;;;;;;;0.10;0.10;;;3.50;99.90;;;;;;4929409;29;20043;-76
2021/12/07 06:19:27;;;;;;;0.85;0.85;;;3.50;99.90;;;;;;4930681;29;20504;-77
2021/12/07 06:21:53;;;;;;;0.10;0.10;;;3.50;99.90;;;;;;4931956;29;20020;-77
2021/12/07 06:24:19;;;;;;;0.10;0.10;;;3.60;99.90;;;;;;4933021;29;20393;-76
2021/12/07 06:26:45;;;;;;;0.10;0.10;;;3.30;99.90;;;;;;4914620;29;20114;-77
2021/12/07 06:29:12;;;;;;;0.10;0.10;;;3.60;99.90;;;;;;4926925;29;20044;-77
2021/12/07 06:31:37;;;;;;;0.10;0.10;;;3.60;99.90;;;;;;4922477;29;20308;-77
2021/12/07 06:34:03;;;;;;;0.10;0.10;;;3.70;99.90;;;;;;4932933;29;20590;-76
2021/12/07 06:36:29;;;;;;;0.10;0.10;;;3.70;99.90;;;;;;4932794;29;20512;-76
2021/12/07 06:38:55;;;;;;;0.10;0.10;;;3.80;99.90;;;;;;4928033;29;20043;-76
2021/12/07 06:41:20;;;;;;;0.10;0.10;;;3.90;99.90;;;;;;4932030;29;20035;-76
2021/12/07 06:43:46;;;;;;;0.15;0.15;;;4.00;99.90;;;;;;4944486;29;20037;-77
2021/12/07 06:46:12;;;;;;;0.90;0.90;;;4.20;99.90;;;;;;4928392;29;20493;-77
2021/12/07 06:48:39;;;;;;;0.10;0.10;;;4.20;99.90;;;;;;4932679;29;20034;-77
2021/12/07 06:51:05;;;;;;;0.10;0.10;;;4.20;99.90;;;;;;4932542;29;20039;-77
2021/12/07 06:53:35;;;;;;;0.10;0.10;;;4.10;99.90;;;;;;4932078;29;20127;-77
2021/12/07 06:56:05;;;;;;;0.10;0.10;;;4.10;99.90;;;;;;4930330;29;20036;-77
2021/12/07 06:58:31;;;;;;;0.10;0.10;;;4.30;99.90;;;;;;4930209;29;20047;-77
2021/12/07 07:00:56;;;;;;;0.10;0.10;;;4.10;99.90;;;;;;4925737;29;20031;-77
2021/12/07 07:03:22;;;;;;;0.10;0.10;;;4.10;99.90;;;;;;4931420;29;20414;-77
2021/12/07 07:05:47;;;;;;;0.10;0.10;;;4.10;99.90;;;;;;4931973;29;20039;-76
2021/12/07 07:08:15;;;;;;;0.10;0.10;;;4.10;99.90;;;;;;4922643;29;20036;-77
2021/12/07 07:10:41;;;;;;;0.10;0.10;;;4.10;99.90;;;;;;4917292;29;20032;-76
2021/12/07 07:13:07;;;;;;;0.10;0.10;;;4.20;99.90;;;;;;4913219;29;20020;-77
2021/12/07 07:15:33;;;;;;;0.10;0.10;;;4.20;99.90;;;;;;4923558;29;20505;-77
2021/12/07 07:18:00;;;;;;;0.10;0.10;;;4.20;99.90;;;;;;4922183;29;20028;-76
2021/12/07 07:20:26;;;;;;;0.10;0.10;;;4.20;99.90;;;;;;4919061;29;20027;-77
2021/12/07 07:22:53;;;;;;;0.10;0.10;;;4.20;99.90;;;;;;4932617;29;20075;-77
2021/12/07 07:25:19;;;;;;;0.10;0.10;;;4.20;99.90;;;;;;4914358;29;20028;-77
2021/12/07 07:27:45;;;;;;;0.10;0.10;;;4.20;99.90;;;;;;4931228;29;20466;-76
2021/12/07 07:30:13;;;;;;;0.10;0.10;;;4.20;99.90;;;;;;4920064;29;20046;-77
2021/12/07 07:32:39;;;;;;;0.10;0.10;;;4.20;99.90;;;;;;4932039;29;20027;-78
2021/12/07 07:35:06;;;;;;;0.10;0.10;;;4.30;99.90;;;;;;4934092;29;20493;-76
2021/12/07 07:37:32;;;;;;;0.10;0.10;;;4.30;99.90;;;;;;4932994;29;20031;-77
2021/12/07 07:39:57;;;;;;;0.10;0.10;;;4.20;99.90;;;;;;4926641;29;20417;-77
2021/12/07 07:42:23;;;;;;;0.10;0.10;;;4.20;99.90;;;;;;4932166;29;20035;-77
2021/12/07 07:44:49;;;;;;;0.10;0.10;;;4.20;99.90;;;;;;4929112;29;20042;-76
2021/12/07 07:47:14;;;;;;;1.08;1.02;;;4.20;99.90;;;;;;4929600;29;20555;-76
2021/12/07 07:49:40;;;;;;;0.10;0.10;;;4.20;99.90;;;;;;4930576;29;20054;-76
2021/12/07 07:52:06;;;;;;;0.10;0.10;;;4.20;99.90;;;;;;4925926;29;20402;-77
2021/12/07 07:54:31;;;;;;;0.10;0.10;;;4.20;99.90;;;;;;4933164;29;20034;-76
2021/12/07 07:56:57;;;;;;;0.10;0.10;;;4.30;99.90;;;;;;4934022;29;20447;-78
2021/12/07 07:59:23;;;;;;;0.10;0.10;;;4.30;99.90;;;;;;4932076;29;20024;-77
2021/12/07 08:01:48;;;;;;;0.10;0.10;;;4.30;99.90;;;;;;4933990;29;20034;-77
2021/12/07 08:04:14;;;;;;;0.10;0.10;;;4.40;99.90;;;;;;4934900;29;20130;-77
2021/12/07 08:06:40;;;;;;;0.68;0.68;;;4.40;99.90;;;;;;4929623;29;20091;-78
2021/12/07 08:09:06;;;;;;;0.10;0.10;;;4.50;99.90;;;;;;4933059;29;20035;-78
2021/12/07 08:11:33;;;;;;;0.10;0.10;;;4.50;99.90;;;;;;4932085;29;20039;-77
2021/12/07 08:13:59;;;;;;;0.10;0.10;;;4.60;99.90;;;;;;4934422;29;20027;-77
2021/12/07 08:16:25;;;;;;;0.13;0.13;;;4.70;99.90;;;;;;4932557;29;20019;-77
2021/12/07 08:18:52;;;;;;;0.10;0.10;;;4.70;99.90;;;;;;4933980;29;20343;-77
2021/12/07 08:21:19;;;;;;;0.10;0.10;;;4.70;99.90;;;;;;4933442;29;20019;-78
2021/12/07 08:23:45;;;;;;;0.10;0.10;;;4.80;99.90;;;;;;4933507;29;20390;-78
2021/12/07 08:26:14;;;;;;;0.10;0.10;;;4.80;99.90;;;;;;4930456;29;20027;-78
2021/12/07 08:28:40;;;;;;;0.10;0.10;;;4.80;99.90;;;;;;4931408;29;20043;-78
2021/12/07 08:31:06;;;;;;;0.35;0.35;;;4.90;99.90;;;;;;4931772;29;20068;-77
2021/12/07 08:33:33;;;;;;;0.10;0.10;;;4.90;99.90;;;;;;4931059;29;20035;-79
2021/12/07 08:36:00;;;;;;;1.27;1.27;;;4.90;99.90;;;;;;4941770;29;20158;-77
2021/12/07 08:38:28;;;;;;;0.10;0.10;;;4.90;99.90;;;;;;4926957;29;20249;-79
2021/12/07 08:40:54;;;;;;;0.13;0.13;;;4.90;99.90;;;;;;4932762;29;20034;-77
2021/12/07 08:43:26;;;;;;;0.10;0.10;;;4.90;99.90;;;;;;4930984;29;20043;-76
2021/12/07 08:45:53;;;;;;;0.10;0.10;;;4.90;99.90;;;;;;4929126;29;20083;-76
2021/12/07 08:48:19;;;;;;;0.10;0.10;;;4.90;99.90;;;;;;4919334;29;20072;-76
2021/12/07 08:50:45;;;;;;;0.10;0.10;;;5.20;99.90;;;;;;4929838;29;20031;-76
2021/12/07 08:53:14;;;;;;;0.10;0.10;;;5.00;99.90;;;;;;4933746;29;20087;-75
2021/12/07 09:01:11;;;;;;;0.10;0.10;;;5.10;99.90;;;;;;4929994;29;20534;-76
2021/12/07 09:03:37;;;;;;;0.10;0.10;;;5.10;99.90;;;;;;4934493;29;20095;-76
2021/12/07 09:06:04;;;;;;;0.10;0.10;;;5.10;99.90;;;;;;4932596;29;20078;-75
2021/12/07 09:08:29;;;;;;;0.17;0.17;;;5.10;99.90;;;;;;4934158;29;20076;-76
2021/12/07 09:10:55;;;;;;;0.10;0.10;;;5.10;99.90;;;;;;4931769;29;20063;-77
2021/12/07 09:13:23;;;;;;;0.10;0.10;;;5.10;99.90;;;;;;4932970;29;20441;-76
2021/12/07 09:15:50;;;;;;;0.10;0.10;;;5.10;99.90;;;;;;4931841;29;20036;-75
2021/12/07 09:18:16;;;;;;;0.10;0.10;;;5.10;99.90;;;;;;4932217;29;20062;-76
2021/12/07 09:20:42;;;;;;;0.10;0.10;;;5.30;99.90;;;;;;4931554;29;20486;-79
2021/12/07 09:23:07;;;;;;;0.10;0.10;;;5.10;99.90;;;;;;4932893;29;20339;-76
2021/12/07 09:25:33;;;;;;;0.10;0.10;;;5.20;99.90;;;;;;4932201;29;20481;-77
2021/12/07 09:27:59;;;;;;;0.10;0.10;;;5.20;99.90;;;;;;4931958;29;20099;-76
2021/12/07 09:30:25;;;;;;;0.13;0.13;;;5.20;99.90;;;;;;4926988;29;20036;-77
2021/12/07 09:32:51;;;;;;;0.10;0.10;;;5.10;99.90;;;;;;4934211;29;20111;-75
2021/12/07 09:35:18;;;;;;;0.10;0.10;;;5.00;99.90;;;;;;4940684;29;20027;-75
2021/12/07 09:37:44;;;;;;;0.10;0.10;;;5.10;99.90;;;;;;4941524;29;20045;-75
2021/12/07 09:40:14;;;;;;;0.10;0.10;;;5.10;99.90;;;;;;4940170;29;20137;-76
2021/12/07 09:42:40;;;;;;;0.10;0.10;;;5.20;99.90;;;;;;4934430;29;20051;-76
2021/12/07 09:45:09;;;;;;;0.10;0.10;;;5.30;99.90;;;;;;4925072;29;20516;-77
2021/12/07 09:47:35;;;;;;;0.10;0.10;;;5.30;99.90;;;;;;4932814;29;20109;-77
2021/12/07 09:50:03;;;;;;;0.10;0.10;;;5.30;99.90;;;;;;4932603;29;20116;-76
2021/12/07 09:52:29;;;;;;;0.10;0.10;;;5.20;99.90;;;;;;4932648;29;20028;-76
2021/12/07 09:54:56;;;;;;;0.10;0.10;;;5.20;99.90;;;;;;4932150;29;20525;-76
2021/12/07 09:57:22;;;;;;;0.10;0.10;;;5.20;99.90;;;;;;4931732;29;20038;-76
2021/12/07 09:59:49;;;;;;;0.10;0.10;;;5.20;99.90;;;;;;4931469;29;20053;-76
2021/12/07 10:02:15;;;;;;;0.10;0.10;;;5.40;99.90;;;;;;4931351;29;20070;-76
2021/12/07 10:04:41;;;;;;;0.10;0.10;;;5.70;99.90;;;;;;4933154;29;20501;-76
2021/12/07 10:07:08;;;;;;;0.10;0.10;;;6.00;99.90;;;;;;4929282;29;20036;-76
2021/12/07 10:09:35;;;;;;;0.10;0.10;;;6.00;99.90;;;;;;4928682;29;20028;-75
2021/12/07 10:12:02;;;;;;;0.40;0.40;;;5.90;99.90;;;;;;4929275;29;20042;-75
2021/12/07 10:14:42;;;;;;;0.10;0.10;;;5.90;99.90;;;;;;4930355;29;20097;-76
2021/12/07 10:17:09;;;;;;;0.10;0.10;;;5.60;99.90;;;;;;4930087;29;20023;-75
2021/12/07 10:19:37;;;;;;;0.10;0.10;;;5.60;99.90;;;;;;4925331;29;20035;-76
2021/12/07 10:22:07;;;;;;;0.10;0.10;;;5.50;99.90;;;;;;4929374;29;20038;-76
2021/12/07 10:24:45;;;;;;;0.10;0.10;;;5.50;99.90;;;;;;4931241;29;20038;-76
2021/12/07 10:27:11;;;;;;;0.10;0.10;;;5.60;99.90;;;;;;4927652;29;20389;-76
2021/12/07 10:29:39;;;;;;;0.10;0.10;;;5.60;99.90;;;;;;4930078;29;20024;-77
2021/12/07 10:32:07;;;;;;;0.10;0.10;;;5.60;99.90;;;;;;4930474;29;20047;-75
2021/12/07 10:34:36;;;;;;;0.10;0.10;;;5.60;99.90;;;;;;4930152;29;20496;-76
2021/12/07 10:37:11;;;;;;;0.10;0.10;;;5.70;99.90;;;;;;4926535;29;20083;-77
2021/12/07 10:39:44;;;;;;;0.10;0.10;;;5.50;99.90;;;;;;4922843;29;20092;-77
2021/12/07 10:42:15;;;;;;;0.10;0.10;;;5.40;99.90;;;;;;4930667;29;20110;-77
2021/12/07 10:44:42;;;;;;;0.95;0.95;;;5.30;99.90;;;;;;4929671;29;20036;-75
2021/12/07 10:47:16;;;;;;;0.10;0.10;;;5.30;99.90;;;;;;4930815;29;20032;-77
2021/12/07 10:49:46;;;;;;;0.10;0.10;;;5.50;99.90;;;;;;4929800;29;20138;-76
2021/12/07 10:52:20;;;;;;;0.10;0.10;;;5.60;99.90;;;;;;4930394;29;20024;-77
2021/12/07 10:54:52;;;;;;;0.10;0.10;;;5.80;99.90;;;;;;4931370;29;20584;-77
2021/12/07 10:57:23;;;;;;;0.10;0.10;;;6.00;99.90;;;;;;4930583;29;20071;-77
2021/12/07 10:59:53;;;;;;;0.10;0.10;;;6.20;99.90;;;;;;4930952;29;20090;-76
2021/12/07 11:02:19;;;;;;;0.10;0.10;;;6.20;99.90;;;;;;4928863;29;20038;-81
2021/12/07 11:04:47;;;;;;;0.10;0.10;;;6.40;99.90;;;;;;4928625;29;20495;-78
2021/12/07 11:07:16;;;;;;;0.10;0.10;;;6.50;99.90;;;;;;4929894;29;20031;-77
2021/12/07 11:10:06;;;;;;;0.10;0.10;;;6.50;99.90;;;;;;4930319;29;20032;-78
2021/12/07 11:12:42;;;;;;;0.10;0.10;;;6.30;99.90;;;;;;4928455;29;20398;-76
2021/12/07 11:15:14;;;;;;;0.10;0.10;;;6.40;99.90;;;;;;4929496;29;20028;-77
2021/12/07 11:17:40;;;;;;;0.10;0.10;;;6.30;99.90;;;;;;4928577;29;20027;-78
2021/12/07 11:20:08;;;;;;;0.10;0.10;;;6.30;99.90;;;;;;4930057;29;20102;-79
2021/12/07 11:22:37;;;;;;;0.10;0.10;;;6.20;99.90;;;;;;4926421;29;20020;-79
2021/12/07 11:25:05;;;;;;;0.10;0.10;;;6.10;99.90;;;;;;4928607;29;20086;-77
2021/12/07 11:30:35;;;;;;;0.10;0.10;;;5.90;99.90;;;;;;4928717;29;20111;-79
2021/12/07 11:33:02;;;;;;;0.10;0.10;;;5.90;99.90;;;;;;4930648;29;20177;-79
2021/12/07 11:35:33;;;;;;;0.10;0.10;;;5.90;99.90;;;;;;4930018;29;20210;-79
2021/12/07 11:38:02;;;;;;;0.10;0.10;;;5.90;99.90;;;;;;4929652;29;20027;-79
2021/12/07 11:40:34;;;;;;;0.10;0.10;;;5.90;99.90;;;;;;4924655;29;20055;-77
2021/12/07 11:43:00;;;;;;;0.10;0.10;;;6.10;99.90;;;;;;4929645;29;20050;-76
2021/12/07 11:45:31;;;;;;;0.10;0.10;;;6.20;99.90;;;;;;4929209;29;20051;-77
2021/12/07 11:48:00;;;;;;;0.10;0.10;;;6.30;99.90;;;;;;4925911;29;20034;-78
2021/12/07 11:50:30;;;;;;;0.10;0.10;;;6.60;99.90;;;;;;4928740;29;20087;-78
2021/12/07 11:53:03;;;;;;;0.10;0.10;;;6.60;99.90;;;;;;4925694;29;20027;-77
2021/12/07 11:55:31;;;;;;;0.30;0.30;;;6.90;99.90;;;;;;4923215;29;20036;-78
2021/12/07 11:57:58;;;;;;;0.10;0.10;;;6.90;99.90;;;;;;4928918;29;20038;-77
2021/12/07 12:00:34;;;;;;;0.10;0.10;;;6.80;99.90;;;;;;4928301;29;20040;-78
2021/12/07 12:03:06;;;;;;;0.30;0.30;;;6.70;99.90;;;;;;4923994;29;20107;-78
2021/12/07 12:05:32;;;;;;;0.10;0.10;;;6.60;99.90;;;;;;4930774;29;20106;-77
2021/12/07 12:07:58;;;;;;;0.10;0.10;;;6.50;99.90;;;;;;4930297;29;20083;-78
2021/12/07 12:10:24;;;;;;;0.10;0.10;;;6.40;99.90;;;;;;4929116;29;20032;-77
2021/12/07 12:13:31;;;;;;;0.10;0.10;;;6.50;99.90;;;;;;4930706;29;20347;-79
2021/12/07 12:16:22;;;;;;;0.10;0.10;;;6.60;99.90;;;;;;4928544;29;20482;-78
2021/12/07 12:19:16;;;;;;;0.10;0.10;;;6.80;99.90;;;;;;4930595;29;20051;-79
2021/12/07 12:21:49;;;;;;;;;;;6.60;99.90;;;;;;4933280;29;20063;-78
2021/12/07 12:24:20;;;;;;;0.10;0.10;;;6.50;99.90;;;;;;4932355;29;19934;-79
2021/12/07 12:26:47;;;;;;;0.10;0.10;;;6.60;99.90;;;;;;4933473;29;20290;-78
2021/12/07 12:29:19;;;;;;;0.10;0.10;;;6.80;99.90;;;;;;4932707;29;20156;-78
2021/12/07 12:31:52;;;;;;;0.10;0.10;;;7.00;99.90;;;;;;4934032;29;20091;-77
2021/12/07 12:34:46;;;;;;;0.10;0.10;;;7.30;99.90;;;;;;4933133;29;20482;-78
2021/12/07 12:37:21;;;;;;;0.20;0.20;;;7.50;99.90;;;;;;4930801;29;20090;-78
2021/12/07 12:39:58;;;;;;;0.10;0.10;;;7.60;99.90;;;;;;4933762;29;20170;-78
2021/12/07 12:42:31;;;;;;;1.05;1.05;;;7.60;99.90;;;;;;4934599;29;20032;-78
2021/12/07 12:45:08;;;;;;;0.10;0.10;;;7.30;99.90;;;;;;4930791;29;20020;-78
2021/12/07 12:47:37;;;;;;;0.10;0.10;;;7.40;99.90;;;;;;4931995;29;20106;-78
2021/12/07 12:50:16;;;;;;;0.10;0.10;;;7.40;99.90;;;;;;4930924;29;20031;-79
2021/12/07 12:52:44;;;;;;;0.10;0.10;;;7.30;99.90;;;;;;4931329;29;20035;-78
2021/12/07 12:55:32;;;;;;;0.10;0.10;;;7.30;99.90;;;;;;4929811;29;20079;-78
2021/12/07 12:57:59;;;;;;;0.10;0.10;;;7.20;99.90;;;;;;4932346;29;20111;-78
2021/12/07 13:00:45;;;;;;;0.10;0.10;;;7.40;99.90;;;;;;4930422;29;20039;-79
2021/12/07 13:03:10;;;;;;;0.10;0.10;;;7.50;99.90;;;;;;4924564;29;20042;-78
2021/12/07 13:05:37;;;;;;;0.10;0.10;;;7.60;99.90;;;;;;4930746;29;20403;-77
2021/12/07 13:08:17;;;;;;;0.10;0.10;;;7.40;99.90;;;;;;4932607;29;20023;-78
2021/12/07 13:11:01;;;;;;;0.10;0.10;;;7.40;99.90;;;;;;4928617;29;20031;-78
2021/12/07 13:13:35;;;;;;;0.10;0.10;;;7.20;99.90;;;;;;4928285;29;20036;-79
2021/12/07 13:16:14;;;;;;;0.25;0.25;;;7.30;99.90;;;;;;4931831;29;20516;-77
2021/12/07 13:18:41;;;;;;;0.10;0.10;;;7.20;99.90;;;;;;4933613;29;20035;-78
2021/12/07 13:21:23;;;;;;;0.10;0.10;;;7.10;99.90;;;;;;4928473;29;20393;-78
2021/12/07 13:24:07;;;;;;;0.10;0.10;;;7.20;99.90;;;;;;4933005;29;20115;-77
2021/12/07 13:26:38;;;;;;;0.10;0.10;;;7.20;99.90;;;;;;4926083;29;20028;-77
2021/12/07 13:29:10;;;;;;;0.10;0.10;;;7.20;99.90;;;;;;4931846;29;20031;-79
2021/12/07 13:31:51;;;;;;;0.10;0.10;;;7.20;99.90;;;;;;4931501;29;20027;-79
2021/12/07 13:34:28;;;;;;;0.10;0.10;;;7.40;99.90;;;;;;4931546;29;20027;-79
2021/12/07 13:36:59;;;;;;;0.10;0.10;;;7.00;99.90;;;;;;4928794;29;20445;-79
2021/12/07 13:39:25;;;;;;;0.10;0.10;;;6.90;99.90;;;;;;4927372;29;20024;-79
2021/12/07 13:41:57;;;;;;;0.10;0.10;;;7.60;99.90;;;;;;4933425;29;20539;-80
2021/12/07 13:44:23;;;;;;;0.10;0.10;;;8.60;99.90;;;;;;4932366;29;20438;-79
2021/12/07 13:46:58;;;;;;;0.10;0.10;;;9.40;99.90;;;;;;4931695;29;20039;-78
2021/12/07 13:49:24;;;;;;;0.10;0.10;;;9.90;99.90;;;;;;4930792;29;20031;-79
2021/12/07 13:51:50;;;;;;;0.22;0.22;;;9.70;99.30;;;;;;4933590;29;20042;-78
2021/12/07 13:54:19;;;;;;;0.15;0.15;;;8.90;99.90;;;;;;4931317;29;20655;-79
2021/12/07 13:56:45;;;;;;;0.10;0.10;;;8.10;99.90;;;;;;4930099;29;20039;-79
2021/12/07 13:59:13;;;;;;;0.10;0.10;;;8.40;99.90;;;;;;4932509;29;20118;-78
2021/12/07 14:01:46;;;;;;;0.10;0.10;;;8.40;99.90;;;;;;4931860;29;20027;-78
2021/12/07 14:04:12;;;;;;;0.10;0.10;;;8.40;99.90;;;;;;4929770;29;20028;-79
2021/12/07 14:06:44;;;;;;;0.10;0.10;;;8.80;99.90;;;;;;4932772;29;20124;-78
2021/12/07 14:09:10;;;;;;;0.10;0.10;;;8.30;99.90;;;;;;4931980;29;20107;-78
2021/12/07 14:11:37;;;;;;;0.10;0.10;;;8.00;99.90;;;;;;4929144;29;20478;-78
2021/12/07 14:14:11;;;;;;;0.10;0.10;;;7.50;99.90;;;;;;4930795;29;20111;-78
2021/12/07 14:16:38;;;;;;;0.10;0.10;;;7.40;99.90;;;;;;4928393;29;20028;-79
2021/12/07 14:19:03;;;;;;;0.10;0.10;;;7.60;99.90;;;;;;4931246;29;20036;-78
2021/12/07 14:21:30;;;;;;;0.10;0.10;;;7.40;99.90;;;;;;4931167;29;20090;-78
2021/12/07 14:24:04;;;;;;;0.10;0.10;;;7.50;99.90;;;;;;4931226;29;20457;-77
2021/12/07 14:26:34;;;;;;;0.10;0.10;;;8.30;99.90;;;;;;4932075;29;20035;-80
2021/12/07 14:29:02;;;;;;;0.10;0.10;;;9.30;99.90;;;;;;4926961;29;20027;-78
2021/12/07 14:31:42;;;;;;;0.10;0.10;;;9.70;99.90;;;;;;4930487;29;20039;-78
2021/12/07 14:34:32;;;;;;;0.10;0.10;;;9.80;98.90;;;;;;4931388;29;20494;-79
2021/12/07 14:37:01;;;;;;;0.10;0.10;;;10.10;96.30;;;;;;4929084;29;20582;-78
2021/12/07 14:39:30;;;;;;;0.10;0.10;;;9.90;95.80;;;;;;4928896;29;20019;-79
2021/12/07 14:42:01;;;;;;;0.10;0.10;;;9.10;98.10;;;;;;4946813;28;20028;-78
2021/12/07 14:44:31;;;;;;;0.10;0.10;;;8.20;99.90;;;;;;4930516;29;20024;-79
2021/12/07 14:47:04;;;;;;;0.10;0.10;;;7.30;99.90;;;;;;4931413;29;20524;-78